sensor_id;sensor_type;location;lat;lon;timestamp;pressure;altitude;pressure_sealevel;temperature;humidity
18167;BME280;9208;42.688;23.404;2023-04-07T00:00:04;95142.34;;;4.57;92.30
18167;BME280;9208;42.688;23.404;2023-04-07T00:02:30;95151.41;;;4.54;92.16
18167;BME280;9208;42.688;23.404;2023-04-07T00:04:57;95142.03;;;4.55;92.28
18167;BME280;9208;42.688;23.404;2023-04-07T00:07:22;95139.78;;;4.54;92.41
18167;BME280;9208;42.688;23.404;2023-04-07T00:09:48;95147.69;;;4.39;93.31
18167;BME280;9208;42.688;23.404;2023-04-07T00:12:13;95137.69;;;4.27;94.11
18167;BME280;9208;42.688;23.404;2023-04-07T00:14:39;95130.03;;;4.35;93.71
18167;BME280;9208;42.688;23.404;2023-04-07T00:17:04;95133.22;;;4.42;93.30
18167;BME280;9208;42.688;23.404;2023-04-07T00:19:30;95133.28;;;4.21;94.53
18167;BME280;9208;42.688;23.404;2023-04-07T00:21:57;95116.81;;;4.15;94.82
18167;BME280;9208;42.688;23.404;2023-04-07T00:24:23;95118.66;;;4.18;94.57
18167;BME280;9208;42.688;23.404;2023-04-07T00:26:48;95126.22;;;4.23;94.18
18167;BME280;9208;42.688;23.404;2023-04-07T00:29:13;95120.34;;;4.25;94.12
18167;BME280;9208;42.688;23.404;2023-04-07T00:31:39;95114.44;;;4.26;94.46
18167;BME280;9208;42.688;23.404;2023-04-07T00:34:04;95114.72;;;4.19;94.53
18167;BME280;9208;42.688;23.404;2023-04-07T00:36:30;95117.13;;;4.17;94.43
18167;BME280;9208;42.688;23.404;2023-04-07T00:38:56;95121.81;;;4.17;94.87
18167;BME280;9208;42.688;23.404;2023-04-07T00:41:21;95116.63;;;4.10;95.19
18167;BME280;9208;42.688;23.404;2023-04-07T00:43:49;95120.97;;;4.07;95.71
18167;BME280;9208;42.688;23.404;2023-04-07T00:46:14;95118.91;;;4.11;95.07
18167;BME280;9208;42.688;23.404;2023-04-07T00:48:40;95115.25;;;4.05;96.05
18167;BME280;9208;42.688;23.404;2023-04-07T00:51:05;95115.38;;;4.02;96.16
18167;BME280;9208;42.688;23.404;2023-04-07T00:53:31;95122.31;;;4.03;95.13
18167;BME280;9208;42.688;23.404;2023-04-07T00:55:56;95122.19;;;4.06;95.41
18167;BME280;9208;42.688;23.404;2023-04-07T00:58:22;95116.28;;;3.99;96.26
18167;BME280;9208;42.688;23.404;2023-04-07T01:00:52;95108.31;;;4.04;96.39
18167;BME280;9208;42.688;23.404;2023-04-07T01:03:35;95112.66;;;4.02;96.46
18167;BME280;9208;42.688;23.404;2023-04-07T01:06:04;95098.97;;;3.84;97.93
18167;BME280;9208;42.688;23.404;2023-04-07T01:08:51;95096.75;;;3.82;97.70
18167;BME280;9208;42.688;23.404;2023-04-07T01:11:28;95097.78;;;3.63;99.27
18167;BME280;9208;42.688;23.404;2023-04-07T01:13:56;95096.63;;;3.64;98.83
18167;BME280;9208;42.688;23.404;2023-04-07T01:16:34;95096.56;;;3.55;99.12
18167;BME280;9208;42.688;23.404;2023-04-07T01:19:15;95098.06;;;3.56;99.24
18167;BME280;9208;42.688;23.404;2023-04-07T01:21:48;95106.06;;;3.60;98.82
18167;BME280;9208;42.688;23.404;2023-04-07T01:30:04;95102.78;;;3.43;100.00
18167;BME280;9208;42.688;23.404;2023-04-07T01:32:34;95107.19;;;3.50;100.00
18167;BME280;9208;42.688;23.404;2023-04-07T01:35:01;95114.25;;;3.47;100.00
18167;BME280;9208;42.688;23.404;2023-04-07T01:37:28;95116.53;;;3.49;100.00
18167;BME280;9208;42.688;23.404;2023-04-07T01:39:54;95127.47;;;3.45;100.00
18167;BME280;9208;42.688;23.404;2023-04-07T01:42:20;95138.72;;;3.44;100.00
18167;BME280;9208;42.688;23.404;2023-04-07T01:44:47;95146.50;;;3.54;100.00
18167;BME280;9208;42.688;23.404;2023-04-07T01:47:14;95145.50;;;3.61;100.00
18167;BME280;9208;42.688;23.404;2023-04-07T01:49:42;95154.00;;;3.50;100.00
18167;BME280;9208;42.688;23.404;2023-04-07T01:52:09;95146.75;;;3.47;100.00
18167;BME280;9208;42.688;23.404;2023-04-07T01:54:35;95160.41;;;3.44;100.00
18167;BME280;9208;42.688;23.404;2023-04-07T01:57:01;95158.97;;;3.52;99.32
18167;BME280;9208;42.688;23.404;2023-04-07T01:59:26;95165.94;;;3.40;98.67
18167;BME280;9208;42.688;23.404;2023-04-07T02:01:52;95170.06;;;3.45;98.27
18167;BME280;9208;42.688;23.404;2023-04-07T02:04:35;95167.22;;;3.48;97.55
18167;BME280;9208;42.688;23.404;2023-04-07T02:07:15;95158.72;;;3.37;98.34
18167;BME280;9208;42.688;23.404;2023-04-07T02:09:44;95168.66;;;3.40;97.93
18167;BME280;9208;42.688;23.404;2023-04-07T02:12:13;95166.50;;;3.35;97.89
18167;BME280;9208;42.688;23.404;2023-04-07T02:14:41;95156.78;;;3.25;99.35
18167;BME280;9208;42.688;23.404;2023-04-07T02:17:07;95159.06;;;3.27;100.00
18167;BME280;9208;42.688;23.404;2023-04-07T02:19:33;95156.88;;;3.34;100.00
18167;BME280;9208;42.688;23.404;2023-04-07T02:22:02;95157.94;;;3.37;100.00
18167;BME280;9208;42.688;23.404;2023-04-07T02:24:29;95170.00;;;3.36;100.00
18167;BME280;9208;42.688;23.404;2023-04-07T02:26:54;95170.59;;;3.52;100.00
18167;BME280;9208;42.688;23.404;2023-04-07T02:29:20;95165.28;;;3.49;100.00
18167;BME280;9208;42.688;23.404;2023-04-07T02:31:45;95172.09;;;3.53;99.90
18167;BME280;9208;42.688;23.404;2023-04-07T02:34:11;95178.72;;;3.52;99.26
18167;BME280;9208;42.688;23.404;2023-04-07T02:36:37;95182.06;;;3.56;99.13
18167;BME280;9208;42.688;23.404;2023-04-07T02:39:02;95181.25;;;3.68;98.85
18167;BME280;9208;42.688;23.404;2023-04-07T02:41:28;95187.31;;;3.72;98.90
18167;BME280;9208;42.688;23.404;2023-04-07T02:43:53;95189.34;;;3.81;98.30
18167;BME280;9208;42.688;23.404;2023-04-07T02:46:18;95188.59;;;3.80;98.86
18167;BME280;9208;42.688;23.404;2023-04-07T02:48:44;95188.38;;;3.75;99.29
18167;BME280;9208;42.688;23.404;2023-04-07T02:51:10;95196.72;;;3.80;99.22
18167;BME280;9208;42.688;23.404;2023-04-07T02:53:35;95198.88;;;3.85;98.42
18167;BME280;9208;42.688;23.404;2023-04-07T02:56:00;95196.78;;;3.89;98.26
18167;BME280;9208;42.688;23.404;2023-04-07T02:58:27;95195.94;;;3.80;98.88
18167;BME280;9208;42.688;23.404;2023-04-07T03:00:52;95201.50;;;3.76;99.87
18167;BME280;9208;42.688;23.404;2023-04-07T03:03:18;95191.31;;;3.80;100.00
18167;BME280;9208;42.688;23.404;2023-04-07T03:05:43;95194.94;;;3.86;100.00
18167;BME280;9208;42.688;23.404;2023-04-07T03:08:09;95197.88;;;3.92;99.94
18167;BME280;9208;42.688;23.404;2023-04-07T03:10:34;95198.13;;;3.85;99.95
18167;BME280;9208;42.688;23.404;2023-04-07T03:13:00;95195.91;;;3.92;99.44
18167;BME280;9208;42.688;23.404;2023-04-07T03:15:25;95195.84;;;3.83;99.92
18167;BME280;9208;42.688;23.404;2023-04-07T03:17:51;95194.94;;;3.86;100.00
18167;BME280;9208;42.688;23.404;2023-04-07T03:20:16;95195.28;;;3.88;100.00
18167;BME280;9208;42.688;23.404;2023-04-07T03:22:42;95196.59;;;3.84;100.00
18167;BME280;9208;42.688;23.404;2023-04-07T03:25:09;95198.22;;;3.81;99.80
18167;BME280;9208;42.688;23.404;2023-04-07T03:27:35;95192.16;;;3.77;99.98
18167;BME280;9208;42.688;23.404;2023-04-07T03:30:01;95197.66;;;3.86;99.07
18167;BME280;9208;42.688;23.404;2023-04-07T03:32:26;95201.56;;;3.85;98.36
18167;BME280;9208;42.688;23.404;2023-04-07T03:34:52;95199.00;;;3.82;98.06
18167;BME280;9208;42.688;23.404;2023-04-07T03:37:17;95204.66;;;3.75;97.62
18167;BME280;9208;42.688;23.404;2023-04-07T03:39:42;95200.94;;;3.81;96.89
18167;BME280;9208;42.688;23.404;2023-04-07T03:42:08;95198.13;;;3.85;96.25
18167;BME280;9208;42.688;23.404;2023-04-07T03:44:33;95191.31;;;3.80;99.53
18167;BME280;9208;42.688;23.404;2023-04-07T03:46:59;95195.34;;;3.76;100.00
18167;BME280;9208;42.688;23.404;2023-04-07T03:49:25;95205.47;;;3.63;100.00
18167;BME280;9208;42.688;23.404;2023-04-07T03:51:51;95209.34;;;3.62;100.00
18167;BME280;9208;42.688;23.404;2023-04-07T03:54:16;95213.25;;;3.61;100.00
18167;BME280;9208;42.688;23.404;2023-04-07T03:56:42;95209.03;;;3.60;100.00
18167;BME280;9208;42.688;23.404;2023-04-07T03:59:07;95210.56;;;3.61;100.00
18167;BME280;9208;42.688;23.404;2023-04-07T04:01:33;95221.22;;;3.55;100.00
18167;BME280;9208;42.688;23.404;2023-04-07T04:03:58;95218.16;;;3.53;100.00
18167;BME280;9208;42.688;23.404;2023-04-07T04:06:24;95218.41;;;3.34;100.00
18167;BME280;9208;42.688;23.404;2023-04-07T04:08:51;95205.75;;;3.18;100.00
18167;BME280;9208;42.688;23.404;2023-04-07T04:11:16;95214.78;;;3.15;100.00
18167;BME280;9208;42.688;23.404;2023-04-07T04:13:42;95224.09;;;3.27;100.00
18167;BME280;9208;42.688;23.404;2023-04-07T04:16:07;95219.66;;;3.20;100.00
18167;BME280;9208;42.688;23.404;2023-04-07T04:18:33;95221.81;;;3.13;100.00
18167;BME280;9208;42.688;23.404;2023-04-07T04:20:58;95225.06;;;3.20;100.00
18167;BME280;9208;42.688;23.404;2023-04-07T04:23:24;95233.28;;;3.29;100.00
18167;BME280;9208;42.688;23.404;2023-04-07T04:25:49;95228.19;;;3.19;100.00
18167;BME280;9208;42.688;23.404;2023-04-07T04:28:14;95225.81;;;3.21;100.00
18167;BME280;9208;42.688;23.404;2023-04-07T04:30:40;95233.38;;;3.26;100.00
18167;BME280;9208;42.688;23.404;2023-04-07T04:33:06;95240.75;;;3.25;100.00
18167;BME280;9208;42.688;23.404;2023-04-07T04:35:31;95237.06;;;3.32;100.00
18167;BME280;9208;42.688;23.404;2023-04-07T04:37:57;95247.31;;;3.49;100.00
18167;BME280;9208;42.688;23.404;2023-04-07T04:40:22;95251.25;;;3.48;100.00
18167;BME280;9208;42.688;23.404;2023-04-07T04:42:48;95245.50;;;3.46;100.00
18167;BME280;9208;42.688;23.404;2023-04-07T04:45:13;95241.91;;;3.49;100.00
18167;BME280;9208;42.688;23.404;2023-04-07T04:47:38;95249.59;;;3.51;100.00
18167;BME280;9208;42.688;23.404;2023-04-07T04:50:06;95249.59;;;3.51;100.00
18167;BME280;9208;42.688;23.404;2023-04-07T04:52:31;95253.47;;;3.62;100.00
18167;BME280;9208;42.688;23.404;2023-04-07T04:54:57;95252.72;;;3.62;100.00
18167;BME280;9208;42.688;23.404;2023-04-07T04:57:23;95253.81;;;3.64;100.00
18167;BME280;9208;42.688;23.404;2023-04-07T04:59:48;95252.94;;;3.67;100.00
18167;BME280;9208;42.688;23.404;2023-04-07T05:02:14;95261.28;;;3.73;100.00
18167;BME280;9208;42.688;23.404;2023-04-07T05:04:39;95262.78;;;3.74;100.00
18167;BME280;9208;42.688;23.404;2023-04-07T05:07:05;95263.47;;;3.65;100.00
18167;BME280;9208;42.688;23.404;2023-04-07T05:09:30;95260.41;;;3.63;100.00
18167;BME280;9208;42.688;23.404;2023-04-07T05:11:56;95267.59;;;3.57;100.00
18167;BME280;9208;42.688;23.404;2023-04-07T05:14:22;95265.19;;;3.59;100.00
18167;BME280;9208;42.688;23.404;2023-04-07T05:16:48;95263.47;;;3.53;100.00
18167;BME280;9208;42.688;23.404;2023-04-07T05:19:13;95279.50;;;3.60;100.00
18167;BME280;9208;42.688;23.404;2023-04-07T05:21:39;95284.53;;;3.49;100.00
18167;BME280;9208;42.688;23.404;2023-04-07T05:24:05;95279.63;;;3.56;100.00
18167;BME280;9208;42.688;23.404;2023-04-07T05:26:30;95273.69;;;3.49;100.00
18167;BME280;9208;42.688;23.404;2023-04-07T05:28:56;95271.41;;;3.47;100.00
18167;BME280;9208;42.688;23.404;2023-04-07T05:31:21;95278.34;;;3.48;100.00
18167;BME280;9208;42.688;23.404;2023-04-07T05:33:46;95285.38;;;3.58;100.00
18167;BME280;9208;42.688;23.404;2023-04-07T05:36:12;95284.25;;;3.68;100.00
18167;BME280;9208;42.688;23.404;2023-04-07T05:38:37;95285.56;;;3.64;100.00
18167;BME280;9208;42.688;23.404;2023-04-07T05:41:03;95283.28;;;3.62;100.00
18167;BME280;9208;42.688;23.404;2023-04-07T05:43:28;95282.31;;;3.69;100.00
18167;BME280;9208;42.688;23.404;2023-04-07T05:45:54;95284.81;;;3.76;100.00
18167;BME280;9208;42.688;23.404;2023-04-07T05:48:19;95283.81;;;3.82;100.00
18167;BME280;9208;42.688;23.404;2023-04-07T05:50:48;95285.97;;;3.87;100.00
18167;BME280;9208;42.688;23.404;2023-04-07T05:53:13;95276.06;;;3.93;100.00
18167;BME280;9208;42.688;23.404;2023-04-07T05:55:41;95291.72;;;4.11;100.00
18167;BME280;9208;42.688;23.404;2023-04-07T05:58:07;95288.09;;;4.26;100.00
18167;BME280;9208;42.688;23.404;2023-04-07T06:00:33;95283.69;;;4.41;100.00
18167;BME280;9208;42.688;23.404;2023-04-07T06:02:58;95291.22;;;4.59;100.00
18167;BME280;9208;42.688;23.404;2023-04-07T06:05:24;95285.75;;;4.80;100.00
18167;BME280;9208;42.688;23.404;2023-04-07T06:07:50;95283.91;;;4.99;100.00
18167;BME280;9208;42.688;23.404;2023-04-07T06:10:15;95285.63;;;5.14;100.00
18167;BME280;9208;42.688;23.404;2023-04-07T06:12:41;95287.63;;;5.23;100.00
18167;BME280;9208;42.688;23.404;2023-04-07T06:15:06;95287.22;;;5.33;99.59
18167;BME280;9208;42.688;23.404;2023-04-07T06:17:32;95294.50;;;5.36;99.03
18167;BME280;9208;42.688;23.404;2023-04-07T06:19:58;95297.22;;;5.36;97.08
18167;BME280;9208;42.688;23.404;2023-04-07T06:22:23;95301.75;;;5.39;95.89
18167;BME280;9208;42.688;23.404;2023-04-07T06:24:48;95299.63;;;5.43;94.65
18167;BME280;9208;42.688;23.404;2023-04-07T06:27:14;95303.91;;;5.44;94.06
18167;BME280;9208;42.688;23.404;2023-04-07T06:29:40;95304.50;;;5.48;93.70
18167;BME280;9208;42.688;23.404;2023-04-07T06:32:05;95306.31;;;5.51;93.53
18167;BME280;9208;42.688;23.404;2023-04-07T06:34:31;95295.00;;;5.53;93.15
18167;BME280;9208;42.688;23.404;2023-04-07T06:36:57;95304.03;;;5.50;92.16
18167;BME280;9208;42.688;23.404;2023-04-07T06:39:22;95317.53;;;5.53;91.72
18167;BME280;9208;42.688;23.404;2023-04-07T06:41:48;95313.72;;;5.51;91.87
18167;BME280;9208;42.688;23.404;2023-04-07T06:44:13;95354.81;;;5.53;85.87
18167;BME280;9208;42.688;23.404;2023-04-07T06:46:38;95343.78;;;5.56;87.40
18167;BME280;9208;42.688;23.404;2023-04-07T06:49:05;95340.63;;;5.58;87.35
18167;BME280;9208;42.688;23.404;2023-04-07T06:51:31;95346.56;;;5.65;86.60
18167;BME280;9208;42.688;23.404;2023-04-07T06:53:56;95356.28;;;5.75;85.21
18167;BME280;9208;42.688;23.404;2023-04-07T06:56:22;95363.34;;;5.73;83.92
18167;BME280;9208;42.688;23.404;2023-04-07T06:58:48;95368.28;;;5.87;84.28
18167;BME280;9208;42.688;23.404;2023-04-07T07:01:13;95370.41;;;5.92;83.08
18167;BME280;9208;42.688;23.404;2023-04-07T07:03:39;95369.19;;;5.93;82.83
18167;BME280;9208;42.688;23.404;2023-04-07T07:06:04;95367.72;;;6.01;83.02
18167;BME280;9208;42.688;23.404;2023-04-07T07:08:30;95362.69;;;5.90;83.26
18167;BME280;9208;42.688;23.404;2023-04-07T07:10:56;95370.00;;;6.02;83.44
18167;BME280;9208;42.688;23.404;2023-04-07T07:13:23;95369.69;;;6.09;82.71
18167;BME280;9208;42.688;23.404;2023-04-07T07:15:50;95358.19;;;6.05;82.77
18167;BME280;9208;42.688;23.404;2023-04-07T07:18:16;95373.19;;;6.10;82.43
18167;BME280;9208;42.688;23.404;2023-04-07T07:20:41;95381.75;;;5.99;82.02
18167;BME280;9208;42.688;23.404;2023-04-07T07:23:07;95391.16;;;6.07;81.29
18167;BME280;9208;42.688;23.404;2023-04-07T07:25:33;95387.97;;;6.09;80.94
18167;BME280;9208;42.688;23.404;2023-04-07T07:27:58;95400.38;;;6.10;80.59
18167;BME280;9208;42.688;23.404;2023-04-07T07:30:24;95393.59;;;6.14;80.53
18167;BME280;9208;42.688;23.404;2023-04-07T07:32:50;95405.97;;;6.15;80.25
18167;BME280;9208;42.688;23.404;2023-04-07T07:35:18;95405.91;;;6.37;79.86
18167;BME280;9208;42.688;23.404;2023-04-07T07:37:43;95377.63;;;6.34;82.26
18167;BME280;9208;42.688;23.404;2023-04-07T07:40:09;95380.97;;;6.47;82.00
18167;BME280;9208;42.688;23.404;2023-04-07T07:42:35;95369.31;;;6.47;82.61
18167;BME280;9208;42.688;23.404;2023-04-07T07:45:02;95389.16;;;6.65;81.47
18167;BME280;9208;42.688;23.404;2023-04-07T07:47:27;95400.78;;;6.75;80.47
18167;BME280;9208;42.688;23.404;2023-04-07T07:49:53;95405.78;;;6.76;80.28
18167;BME280;9208;42.688;23.404;2023-04-07T07:52:18;95412.44;;;6.84;78.96
18167;BME280;9208;42.688;23.404;2023-04-07T07:54:46;95410.34;;;6.88;79.44
18167;BME280;9208;42.688;23.404;2023-04-07T07:57:11;95407.00;;;7.02;79.43
18167;BME280;9208;42.688;23.404;2023-04-07T07:59:37;95407.44;;;7.10;79.25
18167;BME280;9208;42.688;23.404;2023-04-07T08:02:05;95416.97;;;7.14;78.77
18167;BME280;9208;42.688;23.404;2023-04-07T08:04:30;95425.13;;;7.23;78.48
18167;BME280;9208;42.688;23.404;2023-04-07T08:06:56;95414.69;;;7.31;78.10
18167;BME280;9208;42.688;23.404;2023-04-07T08:09:22;95427.09;;;7.41;77.00
18167;BME280;9208;42.688;23.404;2023-04-07T08:11:49;95428.16;;;7.43;76.83
18167;BME280;9208;42.688;23.404;2023-04-07T08:14:16;95440.88;;;7.55;76.16
18167;BME280;9208;42.688;23.404;2023-04-07T08:16:42;95455.09;;;7.68;74.87
18167;BME280;9208;42.688;23.404;2023-04-07T08:19:07;95453.66;;;7.82;74.87
18167;BME280;9208;42.688;23.404;2023-04-07T08:21:33;95458.19;;;7.94;74.88
18167;BME280;9208;42.688;23.404;2023-04-07T08:23:58;95448.88;;;8.09;75.10
18167;BME280;9208;42.688;23.404;2023-04-07T08:26:25;95459.91;;;8.24;73.40
18167;BME280;9208;42.688;23.404;2023-04-07T08:28:51;95494.00;;;8.37;71.45
18167;BME280;9208;42.688;23.404;2023-04-07T08:31:16;95521.56;;;8.48;68.81
18167;BME280;9208;42.688;23.404;2023-04-07T08:33:42;95576.97;;;8.49;63.65
18167;BME280;9208;42.688;23.404;2023-04-07T08:36:07;95597.16;;;8.51;62.00
18167;BME280;9208;42.688;23.404;2023-04-07T08:38:32;95592.25;;;8.64;62.94
18167;BME280;9208;42.688;23.404;2023-04-07T08:41:09;95584.59;;;8.77;62.73
18167;BME280;9208;42.688;23.404;2023-04-07T08:43:37;95585.66;;;8.80;62.49
18167;BME280;9208;42.688;23.404;2023-04-07T08:46:03;95580.59;;;8.87;62.67
18167;BME280;9208;42.688;23.404;2023-04-07T08:48:30;95599.25;;;8.98;61.54
18167;BME280;9208;42.688;23.404;2023-04-07T08:51:04;95588.31;;;8.98;60.91
18167;BME280;9208;42.688;23.404;2023-04-07T08:53:47;95603.94;;;8.97;60.39
18167;BME280;9208;42.688;23.404;2023-04-07T08:56:15;95590.41;;;9.03;60.68
18167;BME280;9208;42.688;23.404;2023-04-07T08:58:41;95598.88;;;9.05;60.46
18167;BME280;9208;42.688;23.404;2023-04-07T09:01:08;95598.78;;;8.99;60.29
18167;BME280;9208;42.688;23.404;2023-04-07T09:03:34;95592.94;;;9.06;60.27
18167;BME280;9208;42.688;23.404;2023-04-07T09:06:00;95609.72;;;8.99;59.43
18167;BME280;9208;42.688;23.404;2023-04-07T09:08:26;95603.63;;;9.04;59.46
18167;BME280;9208;42.688;23.404;2023-04-07T09:10:53;95599.94;;;9.07;59.14
18167;BME280;9208;42.688;23.404;2023-04-07T09:13:18;95603.56;;;9.13;59.60
18167;BME280;9208;42.688;23.404;2023-04-07T09:15:44;95595.63;;;9.15;59.90
18167;BME280;9208;42.688;23.404;2023-04-07T09:18:10;95603.06;;;9.24;59.27
18167;BME280;9208;42.688;23.404;2023-04-07T09:23:31;95610.16;;;9.30;58.49
18167;BME280;9208;42.688;23.404;2023-04-07T09:28:47;95604.72;;;9.45;58.88
18167;BME280;9208;42.688;23.404;2023-04-07T09:31:14;95605.13;;;9.52;58.83
18167;BME280;9208;42.688;23.404;2023-04-07T09:33:40;95611.19;;;9.56;57.90
18167;BME280;9208;42.688;23.404;2023-04-07T09:36:06;95603.94;;;9.68;57.84
18167;BME280;9208;42.688;23.404;2023-04-07T09:38:36;95605.47;;;9.69;57.12
18167;BME280;9208;42.688;23.404;2023-04-07T09:41:06;95617.44;;;9.57;58.22
18167;BME280;9208;42.688;23.404;2023-04-07T09:43:34;95607.88;;;9.52;57.66
18167;BME280;9208;42.688;23.404;2023-04-07T09:46:17;95597.22;;;9.54;58.67
18167;BME280;9208;42.688;23.404;2023-04-07T09:48:43;95595.13;;;9.49;58.48
18167;BME280;9208;42.688;23.404;2023-04-07T09:51:14;95588.16;;;9.48;58.57
18167;BME280;9208;42.688;23.404;2023-04-07T09:53:42;95572.66;;;9.45;60.34
18167;BME280;9208;42.688;23.404;2023-04-07T09:56:09;95585.94;;;9.38;59.00
18167;BME280;9208;42.688;23.404;2023-04-07T09:58:37;95586.53;;;9.42;60.08
18167;BME280;9208;42.688;23.404;2023-04-07T10:01:07;95595.19;;;9.40;60.37
18167;BME280;9208;42.688;23.404;2023-04-07T10:03:34;95571.28;;;9.26;61.74
18167;BME280;9208;42.688;23.404;2023-04-07T10:06:00;95565.47;;;9.10;62.02
18167;BME280;9208;42.688;23.404;2023-04-07T10:08:27;95547.41;;;9.03;63.94
18167;BME280;9208;42.688;23.404;2023-04-07T10:10:54;95524.25;;;9.13;64.24
18167;BME280;9208;42.688;23.404;2023-04-07T10:13:20;95516.03;;;9.13;63.71
18167;BME280;9208;42.688;23.404;2023-04-07T10:15:46;95541.22;;;9.41;62.89
18167;BME280;9208;42.688;23.404;2023-04-07T10:18:13;95550.50;;;9.58;61.02
18167;BME280;9208;42.688;23.404;2023-04-07T10:20:39;95569.41;;;9.70;59.60
18167;BME280;9208;42.688;23.404;2023-04-07T10:23:47;95578.31;;;9.80;60.27
18167;BME280;9208;42.688;23.404;2023-04-07T10:26:18;95564.03;;;9.76;60.70
18167;BME280;9208;42.688;23.404;2023-04-07T10:28:48;95551.09;;;9.62;62.38
18167;BME280;9208;42.688;23.404;2023-04-07T10:31:16;95541.69;;;9.39;63.17
18167;BME280;9208;42.688;23.404;2023-04-07T10:33:50;95530.34;;;9.32;64.92
18167;BME280;9208;42.688;23.404;2023-04-07T10:36:20;95512.94;;;9.20;65.66
18167;BME280;9208;42.688;23.404;2023-04-07T10:41:34;95483.13;;;9.08;68.37
18167;BME280;9208;42.688;23.404;2023-04-07T10:44:01;95500.94;;;9.03;66.69
18167;BME280;9208;42.688;23.404;2023-04-07T10:49:13;95518.25;;;9.00;65.37
18167;BME280;9208;42.688;23.404;2023-04-07T10:51:39;95504.66;;;8.91;65.82
18167;BME280;9208;42.688;23.404;2023-04-07T10:54:14;95497.66;;;8.90;66.90
18167;BME280;9208;42.688;23.404;2023-04-07T10:57:11;95504.78;;;8.97;66.40
18167;BME280;9208;42.688;23.404;2023-04-07T10:59:40;95498.53;;;8.96;66.06
18167;BME280;9208;42.688;23.404;2023-04-07T11:04:41;95503.03;;;9.08;65.92
18167;BME280;9208;42.688;23.404;2023-04-07T11:07:07;95511.31;;;9.14;66.26
18167;BME280;9208;42.688;23.404;2023-04-07T11:09:32;95491.72;;;9.15;67.94
18167;BME280;9208;42.688;23.404;2023-04-07T11:11:58;95492.59;;;9.21;67.57
18167;BME280;9208;42.688;23.404;2023-04-07T11:14:28;95493.72;;;9.29;66.97
18167;BME280;9208;42.688;23.404;2023-04-07T11:16:54;95510.66;;;9.42;66.22
18167;BME280;9208;42.688;23.404;2023-04-07T11:19:19;95519.91;;;9.45;64.83
18167;BME280;9208;42.688;23.404;2023-04-07T11:21:45;95522.63;;;9.30;65.62
18167;BME280;9208;42.688;23.404;2023-04-07T11:24:33;95516.84;;;9.28;65.80
18167;BME280;9208;42.688;23.404;2023-04-07T11:26:59;95515.84;;;9.40;65.37
18167;BME280;9208;42.688;23.404;2023-04-07T11:29:29;95519.16;;;9.59;65.41
18167;BME280;9208;42.688;23.404;2023-04-07T11:31:57;95533.41;;;9.48;64.43
18167;BME280;9208;42.688;23.404;2023-04-07T11:34:28;95533.19;;;9.37;64.81
18167;BME280;9208;42.688;23.404;2023-04-07T11:36:54;95532.53;;;9.42;64.65
18167;BME280;9208;42.688;23.404;2023-04-07T11:39:24;95530.91;;;9.36;65.08
18167;BME280;9208;42.688;23.404;2023-04-07T11:41:52;95522.63;;;9.30;65.92
18167;BME280;9208;42.688;23.404;2023-04-07T11:44:18;95516.56;;;9.26;66.05
18167;BME280;9208;42.688;23.404;2023-04-07T11:46:53;95516.03;;;9.37;66.85
18167;BME280;9208;42.688;23.404;2023-04-07T11:49:19;95519.44;;;9.46;65.02
18167;BME280;9208;42.688;23.404;2023-04-07T11:51:45;95527.31;;;9.53;64.97
18167;BME280;9208;42.688;23.404;2023-04-07T11:54:11;95533.63;;;9.59;64.41
18167;BME280;9208;42.688;23.404;2023-04-07T11:56:44;95521.28;;;9.64;64.87
18167;BME280;9208;42.688;23.404;2023-04-07T11:59:30;95514.03;;;9.75;66.07
18167;BME280;9208;42.688;23.404;2023-04-07T12:01:57;95511.56;;;9.77;65.56
18167;BME280;9208;42.688;23.404;2023-04-07T12:04:22;95521.41;;;9.84;65.36
18167;BME280;9208;42.688;23.404;2023-04-07T12:06:48;95512.41;;;9.83;65.05
18167;BME280;9208;42.688;23.404;2023-04-07T12:11:54;95518.47;;;9.87;65.72
18167;BME280;9208;42.688;23.404;2023-04-07T12:14:21;95511.94;;;9.85;65.44
18167;BME280;9208;42.688;23.404;2023-04-07T12:16:46;95504.97;;;9.84;65.92
18167;BME280;9208;42.688;23.404;2023-04-07T12:19:14;95513.06;;;9.78;66.02
18167;BME280;9208;42.688;23.404;2023-04-07T12:21:40;95521.97;;;9.88;65.89
18167;BME280;9208;42.688;23.404;2023-04-07T12:24:06;95525.34;;;9.97;63.95
18167;BME280;9208;42.688;23.404;2023-04-07T12:26:31;95530.84;;;9.83;65.10
18167;BME280;9208;42.688;23.404;2023-04-07T12:28:57;95517.97;;;9.74;65.09
18167;BME280;9208;42.688;23.404;2023-04-07T12:31:31;95511.56;;;9.77;65.51
18167;BME280;9208;42.688;23.404;2023-04-07T12:33:57;95512.59;;;9.80;65.20
18167;BME280;9208;42.688;23.404;2023-04-07T12:36:24;95508.84;;;9.92;65.15
18167;BME280;9208;42.688;23.404;2023-04-07T12:38:52;95518.56;;;9.93;64.71
18167;BME280;9208;42.688;23.404;2023-04-07T12:41:20;95513.75;;;9.88;64.87
18167;BME280;9208;42.688;23.404;2023-04-07T12:43:46;95503.63;;;9.79;65.80
18167;BME280;9208;42.688;23.404;2023-04-07T12:46:11;95512.97;;;9.87;64.77
18167;BME280;9208;42.688;23.404;2023-04-07T12:48:37;95512.41;;;9.83;64.96
18167;BME280;9208;42.688;23.404;2023-04-07T12:51:03;95500.88;;;9.79;65.52
18167;BME280;9208;42.688;23.404;2023-04-07T12:53:29;95508.38;;;9.79;64.77
18167;BME280;9208;42.688;23.404;2023-04-07T12:55:55;95504.94;;;9.69;64.62
18167;BME280;9208;42.688;23.404;2023-04-07T12:58:20;95501.94;;;9.67;65.73
18167;BME280;9208;42.688;23.404;2023-04-07T13:00:46;95494.94;;;9.66;65.89
18167;BME280;9208;42.688;23.404;2023-04-07T13:03:12;95494.94;;;9.66;66.07
18167;BME280;9208;42.688;23.404;2023-04-07T13:05:40;95506.44;;;9.70;66.34
18167;BME280;9208;42.688;23.404;2023-04-07T13:08:08;95505.44;;;9.82;65.90
18167;BME280;9208;42.688;23.404;2023-04-07T13:10:34;95514.09;;;9.81;65.17
18167;BME280;9208;42.688;23.404;2023-04-07T13:13:02;95503.44;;;9.68;65.58
18167;BME280;9208;42.688;23.404;2023-04-07T13:15:27;95503.91;;;9.67;65.88
18167;BME280;9208;42.688;23.404;2023-04-07T13:17:53;95503.06;;;9.61;65.97
18167;BME280;9208;42.688;23.404;2023-04-07T13:20:19;95517.50;;;9.76;64.86
18167;BME280;9208;42.688;23.404;2023-04-07T13:22:44;95516.78;;;9.75;65.65
18167;BME280;9208;42.688;23.404;2023-04-07T13:28:37;95496.72;;;9.69;66.23
18167;BME280;9208;42.688;23.404;2023-04-07T13:37:54;95486.41;;;9.50;67.79